PWSweather.com
Personal Weather Stations
Station Observations
KTXDECATUR
Wildwood, Decatur, TX 76234

WildwoodDecatur, TX 76234

Lat: 33.2634, Lon: -97.6651

Elevation: 800

Station Type: Davis Vantage Pro 2

http://weather.wildwoodnaturist.com

Latest ConditionsUpdated 5:50:01 PM CDT Wednesday, Jul 27, 2016
Currently Today's Max Today's Min Today's Average
Temperature 76.7°F24.8°C 93.9°F34.4°C 73.0°F22.8°C 80.2°F26.8°C
Dew Point 74.8°F23.8°C 78.8°F26.0°C 69.9°F21.1°C 74.6°F23.7°C
Winds Calm Calm 15.0 mph NE24.1 kmh NE - 1.2 mph 1.9 kmh
Wind Gusts -- 20.7 mph33.3 kmh - -
Humidity 94% 94% 55% 84%
Pressure 29.83 in1010.2 mb 29.90 in1012.5 mb 29.82 in1009.8 mb -
Precipitation - 0.32 in8.1 mm - -
Hour Temp Dew Point Humidity Winds Wind Gusts Pressure Precip Precip Rate Daily Precip Total
05:50 PM 76.7°F24.8°C 74.8°F23.8°C 94% Calm Calm -- 29.83 in1010.2 mb - 0.00 in0.0 mm 0.32 in8.1 mm
05:45 PM 76.4°F24.7°C 74.6°F23.7°C 94% Calm Calm -- 29.83 in1010.2 mb - 0.00 in0.0 mm 0.32 in8.1 mm
05:40 PM 76.0°F24.4°C 74.1°F23.4°C 94% Calm Calm -- 29.83 in1010.2 mb - 0.00 in0.0 mm 0.32 in8.1 mm
05:30 PM 75.7°F24.3°C 73.5°F23.1°C 93% Calm Calm -- 29.82 in1009.8 mb - 0.00 in0.0 mm 0.32 in8.1 mm
05:20 PM 75.5°F24.2°C 73.3°F22.9°C 93% Calm Calm -- 29.83 in1010.2 mb - 0.00 in0.0 mm 0.32 in8.1 mm
05:15 PM 75.2°F24.0°C 73.0°F22.8°C 93% Calm Calm -- 29.83 in1010.2 mb - 0.00 in0.0 mm 0.32 in8.1 mm
05:10 PM 74.9°F23.8°C 72.7°F22.6°C 93% Calm Calm -- 29.83 in1010.2 mb - 0.00 in0.0 mm 0.32 in8.1 mm
05:00 PM 74.6°F23.7°C 72.4°F22.4°C 93% Calm Calm -- 29.83 in1010.2 mb - 0.00 in0.0 mm 0.32 in8.1 mm
04:50 PM 74.4°F23.6°C 72.2°F22.3°C 93% 1.2 mph E1.9 kmh E 3.5 mph5.6 kmh 29.84 in1010.5 mb - 0.00 in0.0 mm 0.32 in8.1 mm
04:45 PM 74.4°F23.6°C 71.9°F22.2°C 92% Calm Calm -- 29.84 in1010.5 mb - 0.00 in0.0 mm 0.32 in8.1 mm
04:40 PM 74.2°F23.4°C 71.7°F22.1°C 92% Calm Calm -- 29.84 in1010.5 mb - 0.00 in0.0 mm 0.32 in8.1 mm
04:30 PM 73.7°F23.2°C 70.9°F21.6°C 91% 1.2 mph E1.9 kmh E 1.2 mph1.9 kmh 29.86 in1011.2 mb - 0.01 in0.3 mm 0.32 in8.1 mm
04:20 PM 73.2°F22.9°C 70.1°F21.2°C 90% 3.5 mph SSE5.6 kmh SSE 6.9 mph11.1 kmh 29.86 in1011.2 mb - 0.00 in0.0 mm 0.31 in7.9 mm
04:15 PM 73.0°F22.8°C 69.9°F21.1°C 90% 2.3 mph S3.7 kmh S 3.5 mph5.6 kmh 29.86 in1011.2 mb - 0.00 in0.0 mm 0.31 in7.9 mm
04:10 PM 73.2°F22.9°C 70.0°F21.1°C 90% 2.3 mph SSE3.7 kmh SSE 5.8 mph9.3 kmh 29.86 in1011.2 mb - 0.05 in1.3 mm 0.31 in7.9 mm
04:00 PM 73.9°F23.3°C 70.8°F21.6°C 90% 3.5 mph SSW5.6 kmh SSW 5.8 mph9.3 kmh 29.87 in1011.5 mb - 0.14 in3.6 mm 0.27 in6.9 mm
03:50 PM 74.7°F23.7°C 71.3°F21.8°C 89% 5.8 mph WSW9.3 kmh WSW 10.4 mph16.7 kmh 29.90 in1012.5 mb - 0.05 in1.3 mm 0.15 in3.8 mm
03:45 PM 75.3°F24.1°C 71.8°F22.1°C 89% 4.6 mph NW7.4 kmh NW 4.6 mph7.4 kmh 29.89 in1012.2 mb - 0.03 in0.8 mm 0.10 in2.5 mm
03:40 PM 76.1°F24.5°C 71.6°F22.0°C 86% 9.2 mph NW14.8 kmh NW 9.2 mph14.8 kmh 29.89 in1012.2 mb - 0.05 in1.3 mm 0.08 in2.0 mm
03:30 PM 77.6°F25.3°C 72.0°F22.2°C 83% 15.0 mph NE24.1 kmh NE 20.7 mph33.3 kmh 29.87 in1011.5 mb - 0.00 in0.0 mm 0.03 in0.8 mm
03:20 PM 79.7°F26.5°C 74.1°F23.4°C 83% 10.4 mph NE16.7 kmh NE 16.1 mph25.9 kmh 29.84 in1010.5 mb - 0.00 in0.0 mm 0.03 in0.8 mm
03:15 PM 80.9°F27.2°C 75.3°F24.1°C 83% 9.2 mph E14.8 kmh E 20.7 mph33.3 kmh 29.85 in1010.8 mb - 0.00 in0.0 mm 0.03 in0.8 mm
03:10 PM 82.4°F28.0°C 75.6°F24.2°C 80% 9.2 mph E14.8 kmh E 9.2 mph14.8 kmh 29.84 in1010.5 mb - 0.03 in0.8 mm 0.03 in0.8 mm
03:00 PM 89.3°F31.8°C 77.3°F25.2°C 68% 8.1 mph E13.0 kmh E 10.4 mph16.7 kmh 29.83 in1010.2 mb - 0.00 in0.0 mm 0.00 in0.0 mm
02:50 PM 90.5°F32.5°C 76.7°F24.8°C 64% 2.3 mph SSW3.7 kmh SSW 3.5 mph5.6 kmh 29.82 in1009.8 mb - 0.00 in0.0 mm 0.00 in0.0 mm
02:45 PM 90.9°F32.7°C 77.1°F25.1°C 64% 5.8 mph S9.3 kmh S 6.9 mph11.1 kmh 29.83 in1010.2 mb - 0.00 in0.0 mm 0.00 in0.0 mm
02:40 PM 91.7°F33.2°C 77.3°F25.2°C 63% 5.8 mph SSW9.3 kmh SSW 8.1 mph13.0 kmh 29.83 in1010.2 mb - 0.00 in0.0 mm 0.00 in0.0 mm
02:30 PM 92.4°F33.6°C 78.0°F25.6°C 63% 3.5 mph WSW5.6 kmh WSW 4.6 mph7.4 kmh 29.83 in1010.2 mb - 0.00 in0.0 mm 0.00 in0.0 mm
02:20 PM 93.2°F34.0°C 74.6°F23.7°C 55% 3.5 mph WSW5.6 kmh WSW 4.6 mph7.4 kmh 29.83 in1010.2 mb - 0.00 in0.0 mm 0.00 in0.0 mm
02:15 PM 93.9°F34.4°C 76.4°F24.7°C 57% 1.2 mph WSW1.9 kmh WSW 1.2 mph1.9 kmh 29.83 in1010.2 mb - 0.00 in0.0 mm 0.00 in0.0 mm
02:10 PM 93.9°F34.4°C 75.8°F24.3°C 56% 3.5 mph SW5.6 kmh SW 4.6 mph7.4 kmh 29.83 in1010.2 mb - 0.00 in0.0 mm 0.00 in0.0 mm
02:00 PM 93.4°F34.1°C 77.0°F25.0°C 59% 2.3 mph WSW3.7 kmh WSW 2.3 mph3.7 kmh 29.83 in1010.2 mb - 0.00 in0.0 mm 0.00 in0.0 mm
01:50 PM 93.8°F34.3°C 78.8°F26.0°C 62% 2.3 mph W3.7 kmh W 8.1 mph13.0 kmh 29.84 in1010.5 mb - 0.00 in0.0 mm 0.00 in0.0 mm
01:45 PM 93.1°F33.9°C 77.1°F25.1°C 60% 2.3 mph WSW3.7 kmh WSW 3.5 mph5.6 kmh 29.84 in1010.5 mb - 0.00 in0.0 mm 0.00 in0.0 mm
01:40 PM 93.5°F34.2°C 77.5°F25.3°C 60% 2.3 mph SE3.7 kmh SE 5.8 mph9.3 kmh 29.85 in1010.8 mb - 0.00 in0.0 mm 0.00 in0.0 mm
01:30 PM 93.2°F34.0°C 77.7°F25.4°C 61% 3.5 mph S5.6 kmh S 3.5 mph5.6 kmh 29.85 in1010.8 mb - 0.00 in0.0 mm 0.00 in0.0 mm
01:20 PM 91.2°F32.9°C 75.9°F24.4°C 61% 1.2 mph W1.9 kmh W 4.6 mph7.4 kmh 29.86 in1011.2 mb - 0.00 in0.0 mm 0.00 in0.0 mm
01:15 PM 91.4°F33.0°C 76.6°F24.8°C 62% 1.2 mph SW1.9 kmh SW 3.5 mph5.6 kmh 29.86 in1011.2 mb - 0.00 in0.0 mm 0.00 in0.0 mm
01:10 PM 91.8°F33.2°C 77.9°F25.5°C 64% 1.2 mph WSW1.9 kmh WSW 2.3 mph3.7 kmh 29.86 in1011.2 mb - 0.00 in0.0 mm 0.00 in0.0 mm
01:00 PM 92.0°F33.3°C 77.1°F25.1°C 62% 2.3 mph S3.7 kmh S 3.5 mph5.6 kmh 29.86 in1011.2 mb - 0.00 in0.0 mm 0.00 in0.0 mm
12:50 PM 92.0°F33.3°C 77.1°F25.1°C 62% 4.6 mph SSW7.4 kmh SSW 4.6 mph7.4 kmh 29.86 in1011.2 mb - 0.00 in0.0 mm 0.00 in0.0 mm
12:45 PM 92.0°F33.3°C 77.1°F25.1°C 62% 4.6 mph SE7.4 kmh SE 6.9 mph11.1 kmh 29.86 in1011.2 mb - 0.00 in0.0 mm 0.00 in0.0 mm
12:40 PM 91.8°F33.2°C 77.4°F25.2°C 63% 3.5 mph SSW5.6 kmh SSW 5.8 mph9.3 kmh 29.86 in1011.2 mb - 0.00 in0.0 mm 0.00 in0.0 mm
12:30 PM 91.1°F32.8°C 77.3°F25.2°C 64% 2.3 mph NW3.7 kmh NW 4.6 mph7.4 kmh 29.87 in1011.5 mb - 0.00 in0.0 mm 0.00 in0.0 mm
12:20 PM 90.7°F32.6°C 77.3°F25.2°C 65% Calm Calm -- 29.87 in1011.5 mb - 0.00 in0.0 mm 0.00 in0.0 mm
12:15 PM 90.3°F32.4°C 77.0°F25.0°C 65% 1.2 mph NNW1.9 kmh NNW 2.3 mph3.7 kmh 29.88 in1011.9 mb - 0.00 in0.0 mm 0.00 in0.0 mm
12:10 PM 90.8°F32.7°C 76.9°F24.9°C 64% Calm Calm 2.3 mph3.7 kmh 29.88 in1011.9 mb - 0.00 in0.0 mm 0.00 in0.0 mm
12:00 PM 90.3°F32.4°C 76.9°F24.9°C 65% 1.2 mph W1.9 kmh W 2.3 mph3.7 kmh 29.89 in1012.2 mb - 0.00 in0.0 mm 0.00 in0.0 mm
11:50 AM 89.8°F32.1°C 77.8°F25.4°C 68% 4.6 mph WNW7.4 kmh WNW 5.8 mph9.3 kmh 29.89 in1012.2 mb - 0.00 in0.0 mm 0.00 in0.0 mm
11:45 AM 89.3°F31.8°C 77.4°F25.2°C 68% 3.5 mph NNW5.6 kmh NNW 4.6 mph7.4 kmh 29.89 in1012.2 mb - 0.00 in0.0 mm 0.00 in0.0 mm
11:40 AM 88.8°F31.6°C 77.3°F25.2°C 69% 2.3 mph N3.7 kmh N 2.3 mph3.7 kmh 29.89 in1012.2 mb - 0.00 in0.0 mm 0.00 in0.0 mm
11:30 AM 88.8°F31.6°C 78.2°F25.7°C 71% Calm Calm 2.3 mph3.7 kmh 29.89 in1012.2 mb - 0.00 in0.0 mm 0.00 in0.0 mm
11:20 AM 87.8°F31.0°C 78.1°F25.6°C 73% Calm Calm 1.2 mph1.9 kmh 29.89 in1012.2 mb - 0.00 in0.0 mm 0.00 in0.0 mm
11:15 AM 87.1°F30.6°C 78.2°F25.7°C 75% 1.2 mph N1.9 kmh N 2.3 mph3.7 kmh 29.89 in1012.2 mb - 0.00 in0.0 mm 0.00 in0.0 mm
11:10 AM 86.9°F30.5°C 78.4°F25.8°C 76% Calm Calm 2.3 mph3.7 kmh 29.90 in1012.5 mb - 0.00 in0.0 mm 0.00 in0.0 mm
11:00 AM 86.4°F30.2°C 78.3°F25.7°C 77% Calm Calm 3.5 mph5.6 kmh 29.90 in1012.5 mb - 0.00 in0.0 mm 0.00 in0.0 mm
10:50 AM 86.1°F30.1°C 78.4°F25.8°C 78% 1.2 mph N1.9 kmh N 2.3 mph3.7 kmh 29.89 in1012.2 mb - 0.00 in0.0 mm 0.00 in0.0 mm
10:45 AM 85.9°F29.9°C 77.8°F25.4°C 77% Calm Calm -- 29.89 in1012.2 mb - 0.00 in0.0 mm 0.00 in0.0 mm
10:40 AM 85.8°F29.9°C 77.7°F25.4°C 77% 2.3 mph N3.7 kmh N 4.6 mph7.4 kmh 29.89 in1012.2 mb - 0.00 in0.0 mm 0.00 in0.0 mm
10:30 AM 85.5°F29.7°C 78.2°F25.7°C 79% 2.3 mph SW3.7 kmh SW 3.5 mph5.6 kmh 29.89 in1012.2 mb - 0.00 in0.0 mm 0.00 in0.0 mm
10:20 AM 85.1°F29.5°C 77.4°F25.2°C 78% 1.2 mph SE1.9 kmh SE 1.2 mph1.9 kmh 29.89 in1012.2 mb - 0.00 in0.0 mm 0.00 in0.0 mm
10:15 AM 84.5°F29.2°C 77.6°F25.3°C 80% Calm Calm -- 29.89 in1012.2 mb - 0.00 in0.0 mm 0.00 in0.0 mm
10:10 AM 84.1°F28.9°C 78.4°F25.8°C 83% Calm Calm 2.3 mph3.7 kmh 29.89 in1012.2 mb - 0.00 in0.0 mm 0.00 in0.0 mm
10:00 AM 83.1°F28.4°C 77.4°F25.2°C 83% Calm Calm -- 29.89 in1012.2 mb - 0.00 in0.0 mm 0.00 in0.0 mm
09:50 AM 82.4°F28.0°C 77.8°F25.4°C 86% Calm Calm -- 29.89 in1012.2 mb - 0.00 in0.0 mm 0.00 in0.0 mm
09:45 AM 82.0°F27.8°C 77.8°F25.4°C 87% Calm Calm -- 29.89 in1012.2 mb - 0.00 in0.0 mm 0.00 in0.0 mm
09:40 AM 81.6°F27.6°C 77.7°F25.4°C 88% Calm Calm -- 29.89 in1012.2 mb - 0.00 in0.0 mm 0.00 in0.0 mm
09:30 AM 80.4°F26.9°C 77.2°F25.1°C 90% Calm Calm -- 29.89 in1012.2 mb - 0.00 in0.0 mm 0.00 in0.0 mm
09:20 AM 79.4°F26.3°C 76.9°F24.9°C 92% Calm Calm -- 29.90 in1012.5 mb - 0.00 in0.0 mm 0.00 in0.0 mm
09:15 AM 79.1°F26.2°C 76.9°F24.9°C 93% Calm Calm -- 29.89 in1012.2 mb - 0.00 in0.0 mm 0.00 in0.0 mm
09:10 AM 78.7°F25.9°C 76.5°F24.7°C 93% Calm Calm -- 29.89 in1012.2 mb - 0.00 in0.0 mm 0.00 in0.0 mm
09:00 AM 78.0°F25.6°C 75.8°F24.3°C 93% Calm Calm -- 29.89 in1012.2 mb - 0.00 in0.0 mm 0.00 in0.0 mm
08:50 AM 77.7°F25.4°C 75.5°F24.2°C 93% Calm Calm -- 29.89 in1012.2 mb - 0.00 in0.0 mm 0.00 in0.0 mm
08:45 AM 77.5°F25.3°C 75.3°F24.1°C 93% Calm Calm -- 29.89 in1012.2 mb - 0.00 in0.0 mm 0.00 in0.0 mm
08:40 AM 77.3°F25.2°C 75.4°F24.1°C 94% Calm Calm -- 29.89 in1012.2 mb - 0.00 in0.0 mm 0.00 in0.0 mm
08:30 AM 76.9°F24.9°C 75.0°F23.9°C 94% Calm Calm -- 29.89 in1012.2 mb - 0.00 in0.0 mm 0.00 in0.0 mm
08:20 AM 76.9°F24.9°C 75.0°F23.9°C 94% Calm Calm -- 29.90 in1012.5 mb - 0.00 in0.0 mm 0.00 in0.0 mm
08:15 AM 76.7°F24.8°C 74.9°F23.8°C 94% Calm Calm -- 29.90 in1012.5 mb - 0.00 in0.0 mm 0.00 in0.0 mm
08:10 AM 76.6°F24.8°C 74.8°F23.8°C 94% Calm Calm -- 29.89 in1012.2 mb - 0.00 in0.0 mm 0.00 in0.0 mm
08:00 AM 76.2°F24.6°C 74.4°F23.6°C 94% Calm Calm -- 29.89 in1012.2 mb - 0.00 in0.0 mm 0.00 in0.0 mm
07:50 AM 76.0°F24.4°C 74.1°F23.4°C 94% Calm Calm -- 29.89 in1012.2 mb - 0.00 in0.0 mm 0.00 in0.0 mm
07:45 AM 75.8°F24.3°C 73.9°F23.3°C 94% Calm Calm -- 29.89 in1012.2 mb - 0.00 in0.0 mm 0.00 in0.0 mm
07:40 AM 75.6°F24.2°C 73.7°F23.2°C 94% Calm Calm -- 29.89 in1012.2 mb - 0.00 in0.0 mm 0.00 in0.0 mm
07:30 AM 75.2°F24.0°C 73.3°F22.9°C 94% Calm Calm -- 29.89 in1012.2 mb - 0.00 in0.0 mm 0.00 in0.0 mm
07:20 AM 75.0°F23.9°C 73.2°F22.9°C 94% Calm Calm -- 29.88 in1011.9 mb - 0.00 in0.0 mm 0.00 in0.0 mm
07:15 AM 75.0°F23.9°C 73.2°F22.9°C 94% Calm Calm -- 29.88 in1011.9 mb - 0.00 in0.0 mm 0.00 in0.0 mm
07:10 AM 75.0°F23.9°C 73.2°F22.9°C 94% Calm Calm -- 29.88 in1011.9 mb - 0.00 in0.0 mm 0.00 in0.0 mm
07:00 AM 74.9°F23.8°C 73.1°F22.8°C 94% Calm Calm -- 29.88 in1011.9 mb - 0.00 in0.0 mm 0.00 in0.0 mm
06:50 AM 74.9°F23.8°C 73.1°F22.8°C 94% Calm Calm -- 29.88 in1011.9 mb - 0.00 in0.0 mm 0.00 in0.0 mm
06:45 AM 74.9°F23.8°C 73.1°F22.8°C 94% Calm Calm -- 29.88 in1011.9 mb - 0.00 in0.0 mm 0.00 in0.0 mm
06:40 AM 74.9°F23.8°C 73.1°F22.8°C 94% Calm Calm -- 29.88 in1011.9 mb - 0.00 in0.0 mm 0.00 in0.0 mm
06:30 AM 74.9°F23.8°C 73.1°F22.8°C 94% Calm Calm -- 29.88 in1011.9 mb - 0.00 in0.0 mm 0.00 in0.0 mm
06:20 AM 74.9°F23.8°C 73.0°F22.8°C 94% Calm Calm -- 29.87 in1011.5 mb - 0.00 in0.0 mm 0.00 in0.0 mm
06:15 AM 74.8°F23.8°C 73.0°F22.8°C 94% Calm Calm -- 29.87 in1011.5 mb - 0.00 in0.0 mm 0.00 in0.0 mm
06:10 AM 74.8°F23.8°C 72.6°F22.6°C 93% Calm Calm -- 29.87 in1011.5 mb - 0.00 in0.0 mm 0.00 in0.0 mm
06:00 AM 74.7°F23.7°C 72.5°F22.5°C 93% Calm Calm -- 29.87 in1011.5 mb - 0.00 in0.0 mm 0.00 in0.0 mm
05:50 AM 74.5°F23.6°C 72.3°F22.4°C 93% Calm Calm -- 29.86 in1011.2 mb - 0.00 in0.0 mm 0.00 in0.0 mm
05:45 AM 74.6°F23.7°C 72.4°F22.4°C 93% Calm Calm -- 29.86 in1011.2 mb - 0.00 in0.0 mm 0.00 in0.0 mm
05:40 AM 74.7°F23.7°C 72.5°F22.5°C 93% Calm Calm -- 29.86 in1011.2 mb - 0.00 in0.0 mm 0.00 in0.0 mm
05:30 AM 74.7°F23.7°C 72.5°F22.5°C 93% Calm Calm -- 29.85 in1010.8 mb - 0.00 in0.0 mm 0.00 in0.0 mm
05:20 AM 74.5°F23.6°C 72.0°F22.2°C 92% Calm Calm -- 29.85 in1010.8 mb - 0.00 in0.0 mm 0.00 in0.0 mm
05:15 AM 74.6°F23.7°C 72.1°F22.3°C 92% Calm Calm -- 29.84 in1010.5 mb - 0.00 in0.0 mm 0.00 in0.0 mm
05:10 AM 74.7°F23.7°C 72.2°F22.3°C 92% Calm Calm -- 29.84 in1010.5 mb - 0.00 in0.0 mm 0.00 in0.0 mm
05:00 AM 74.8°F23.8°C 72.3°F22.4°C 92% Calm Calm -- 29.84 in1010.5 mb - 0.00 in0.0 mm 0.00 in0.0 mm
04:50 AM 75.1°F23.9°C 72.6°F22.6°C 92% Calm Calm -- 29.84 in1010.5 mb - 0.00 in0.0 mm 0.00 in0.0 mm
04:45 AM 75.1°F23.9°C 72.6°F22.6°C 92% Calm Calm -- 29.84 in1010.5 mb - 0.00 in0.0 mm 0.00 in0.0 mm
04:40 AM 75.2°F24.0°C 72.8°F22.7°C 92% Calm Calm -- 29.84 in1010.5 mb - 0.00 in0.0 mm 0.00 in0.0 mm
04:30 AM 75.5°F24.2°C 73.0°F22.8°C 92% Calm Calm -- 29.83 in1010.2 mb - 0.00 in0.0 mm 0.00 in0.0 mm
04:20 AM 75.6°F24.2°C 73.1°F22.8°C 92% Calm Calm -- 29.84 in1010.5 mb - 0.00 in0.0 mm 0.00 in0.0 mm
04:15 AM 75.6°F24.2°C 73.1°F22.8°C 92% Calm Calm -- 29.84 in1010.5 mb - 0.00 in0.0 mm 0.00 in0.0 mm
04:10 AM 75.6°F24.2°C 73.1°F22.8°C 92% Calm Calm -- 29.84 in1010.5 mb - 0.00 in0.0 mm 0.00 in0.0 mm
04:00 AM 75.6°F24.2°C 73.1°F22.8°C 92% Calm Calm -- 29.84 in1010.5 mb - 0.00 in0.0 mm 0.00 in0.0 mm
03:50 AM 75.6°F24.2°C 73.1°F22.8°C 92% Calm Calm -- 29.83 in1010.2 mb - 0.00 in0.0 mm 0.00 in0.0 mm
03:45 AM 75.6°F24.2°C 73.1°F22.8°C 92% Calm Calm -- 29.83 in1010.2 mb - 0.00 in0.0 mm 0.00 in0.0 mm
03:40 AM 75.6°F24.2°C 72.8°F22.7°C 91% Calm Calm -- 29.83 in1010.2 mb - 0.00 in0.0 mm 0.00 in0.0 mm
03:30 AM 75.7°F24.3°C 72.9°F22.7°C 91% Calm Calm -- 29.83 in1010.2 mb - 0.00 in0.0 mm 0.00 in0.0 mm
03:20 AM 75.8°F24.3°C 73.0°F22.8°C 91% Calm Calm -- 29.83 in1010.2 mb - 0.00 in0.0 mm 0.00 in0.0 mm
03:15 AM 75.8°F24.3°C 73.0°F22.8°C 91% Calm Calm -- 29.83 in1010.2 mb - 0.00 in0.0 mm 0.00 in0.0 mm
03:10 AM 75.9°F24.4°C 73.0°F22.8°C 91% Calm Calm -- 29.83 in1010.2 mb - 0.00 in0.0 mm 0.00 in0.0 mm
03:00 AM 76.0°F24.4°C 72.9°F22.7°C 90% Calm Calm -- 29.83 in1010.2 mb - 0.00 in0.0 mm 0.00 in0.0 mm
02:50 AM 76.1°F24.5°C 73.0°F22.8°C 90% Calm Calm -- 29.83 in1010.2 mb - 0.00 in0.0 mm 0.00 in0.0 mm
02:45 AM 76.2°F24.6°C 73.0°F22.8°C 90% Calm Calm -- 29.83 in1010.2 mb - 0.00 in0.0 mm 0.00 in0.0 mm
02:40 AM 76.2°F24.6°C 73.1°F22.8°C 90% Calm Calm -- 29.84 in1010.5 mb - 0.00 in0.0 mm 0.00 in0.0 mm
02:30 AM 76.4°F24.7°C 73.2°F22.9°C 90% Calm Calm -- 29.83 in1010.2 mb - 0.00 in0.0 mm 0.00 in0.0 mm
02:20 AM 76.6°F24.8°C 73.1°F22.8°C 89% Calm Calm -- 29.83 in1010.2 mb - 0.00 in0.0 mm 0.00 in0.0 mm
02:15 AM 76.7°F24.8°C 73.2°F22.9°C 89% Calm Calm -- 29.84 in1010.5 mb - 0.00 in0.0 mm 0.00 in0.0 mm
02:10 AM 76.7°F24.8°C 73.2°F22.9°C 89% Calm Calm -- 29.84 in1010.5 mb - 0.00 in0.0 mm 0.00 in0.0 mm
02:00 AM 76.7°F24.8°C 73.2°F22.9°C 89% Calm Calm -- 29.84 in1010.5 mb - 0.00 in0.0 mm 0.00 in0.0 mm
01:50 AM 76.9°F24.9°C 73.1°F22.8°C 88% Calm Calm -- 29.84 in1010.5 mb - 0.00 in0.0 mm 0.00 in0.0 mm
01:45 AM 77.1°F25.1°C 73.3°F22.9°C 88% Calm Calm -- 29.84 in1010.5 mb - 0.00 in0.0 mm 0.00 in0.0 mm
01:40 AM 77.4°F25.2°C 73.2°F22.9°C 87% Calm Calm -- 29.84 in1010.5 mb - 0.00 in0.0 mm 0.00 in0.0 mm
01:30 AM 77.7°F25.4°C 73.5°F23.1°C 87% Calm Calm -- 29.84 in1010.5 mb - 0.00 in0.0 mm 0.00 in0.0 mm
01:20 AM 77.9°F25.5°C 73.7°F23.2°C 87% Calm Calm -- 29.85 in1010.8 mb - 0.00 in0.0 mm 0.00 in0.0 mm
01:15 AM 78.0°F25.6°C 73.8°F23.2°C 87% Calm Calm -- 29.85 in1010.8 mb - 0.00 in0.0 mm 0.00 in0.0 mm
01:10 AM 78.0°F25.6°C 73.5°F23.1°C 86% Calm Calm -- 29.85 in1010.8 mb - 0.00 in0.0 mm 0.00 in0.0 mm
01:00 AM 78.0°F25.6°C 73.5°F23.1°C 86% Calm Calm -- 29.85 in1010.8 mb - 0.00 in0.0 mm 0.00 in0.0 mm
12:50 AM 78.1°F25.6°C 73.6°F23.1°C 86% Calm Calm -- 29.85 in1010.8 mb - 0.00 in0.0 mm 0.00 in0.0 mm
12:45 AM 78.2°F25.7°C 73.7°F23.2°C 86% Calm Calm -- 29.85 in1010.8 mb - 0.00 in0.0 mm 0.00 in0.0 mm
12:40 AM 78.3°F25.7°C 73.4°F23.0°C 85% Calm Calm -- 29.85 in1010.8 mb - 0.00 in0.0 mm 0.00 in0.0 mm
12:30 AM 78.6°F25.9°C 73.7°F23.2°C 85% Calm Calm -- 29.85 in1010.8 mb - 0.00 in0.0 mm 0.00 in0.0 mm
12:20 AM 78.7°F25.9°C 73.8°F23.2°C 85% Calm Calm -- 29.85 in1010.8 mb - 0.00 in0.0 mm 0.00 in0.0 mm
12:15 AM 78.7°F25.9°C 73.5°F23.1°C 84% Calm Calm -- 29.85 in1010.8 mb - 0.00 in0.0 mm 0.00 in0.0 mm
12:10 AM 79.0°F26.1°C 73.7°F23.2°C 84% Calm Calm -- 29.85 in1010.8 mb - 0.00 in0.0 mm 0.00 in0.0 mm
12:00 AM 79.2°F26.2°C 73.6°F23.1°C 83% Calm Calm -- 29.85 in1010.8 mb - 0.00 in0.0 mm 0.00 in0.0 mm